Observation data for Reese Center on 08/20/2019      Previous  Date       Current Mesonet Observations  Soil Data  Daily Summary Page  Observations in Plain Language
KREE 200500Z 15010KT 29/14 A3008 RMK A01 T02900140  RH  041%=      5-min Rain = 0
KREE 200505Z 15009KT 29/14 A3008 RMK A01 T02880140  RH  041%=      5-min Rain = 0
KREE 200510Z 15009KT 29/14 A3008 RMK A01 T02860141  RH  042%=      5-min Rain = 0
KREE 200515Z 16009KT 28/14 A3008 RMK A01 T02840142  RH  042%=      5-min Rain = 0
KREE 200520Z 16009KT 28/14 A3008 RMK A01 T02830142  RH  043%=      5-min Rain = 0
KREE 200525Z 16009KT 28/14 A3008 RMK A01 T02810142  RH  044%=      5-min Rain = 0
KREE 200530Z 16009KT 28/14 A3008 RMK A01 T02790142  RH  044%=      5-min Rain = 0
KREE 200535Z 16008KT 28/14 A3008 RMK A01 T02760143  RH  045%=      5-min Rain = 0
KREE 200540Z 16008KT 28/14 A3008 RMK A01 T02750143  RH  045%=      5-min Rain = 0
KREE 200545Z 16008KT 28/14 A3008 RMK A01 T02750143  RH  045%=      5-min Rain = 0
KREE 200550Z 16009KT 27/14 A3008 RMK A01 T02740144  RH  046%=      5-min Rain = 0
KREE 200555Z 16008KT 27/14 A3008 RMK A01 T02730144  RH  046%=      5-min Rain = 0
KREE 200600Z 16008KT 27/14 A3008 RMK A01 T02710144  RH  047%=      5-min Rain = 0
KREE 200605Z 15009KT 27/15 A3008 RMK A01 T02700145  RH  047%=      5-min Rain = 0
KREE 200610Z 15009KT 27/15 A3008 RMK A01 T02700145  RH  047%=      5-min Rain = 0
KREE 200615Z 15009KT 27/15 A3008 RMK A01 T02700145  RH  047%=      5-min Rain = 0
KREE 200620Z 15010KT 27/15 A3008 RMK A01 T02710145  RH  047%=      5-min Rain = 0
KREE 200625Z 15010KT 27/15 A3008 RMK A01 T02740145  RH  046%=      5-min Rain = 0
KREE 200630Z 15009KT 27/15 A3008 RMK A01 T02740146  RH  046%=      5-min Rain = 0
KREE 200635Z 15009KT 27/15 A3008 RMK A01 T02730146  RH  047%=      5-min Rain = 0
KREE 200640Z 16008KT 27/15 A3008 RMK A01 T02710146  RH  047%=      5-min Rain = 0
KREE 200645Z 16008KT 27/15 A3008 RMK A01 T02680147  RH  048%=      5-min Rain = 0
KREE 200650Z 16007KT 26/15 A3008 RMK A01 T02640147  RH  050%=      5-min Rain = 0
KREE 200655Z 16007KT 26/15 A3008 RMK A01 T02600146  RH  051%=      5-min Rain = 0
KREE 200700Z 16007KT 26/15 A3008 RMK A01 T02570146  RH  052%=      5-min Rain = 0
KREE 200705Z 16007KT 26/15 A3009 RMK A01 T02550147  RH  052%=      5-min Rain = 0
KREE 200710Z 16007KT 26/15 A3009 RMK A01 T02560147  RH  052%=      5-min Rain = 0
KREE 200715Z 16008KT 26/15 A3008 RMK A01 T02580148  RH  052%=      5-min Rain = 0
KREE 200720Z 15008KT 26/15 A3009 RMK A01 T02570148  RH  052%=      5-min Rain = 0
KREE 200725Z 15008KT 26/15 A3009 RMK A01 T02570149  RH  052%=      5-min Rain = 0
KREE 200730Z 15009KT 26/15 A3009 RMK A01 T02570149  RH  052%=      5-min Rain = 0
KREE 200735Z 15009KT 26/15 A3008 RMK A01 T02570149  RH  052%=      5-min Rain = 0
KREE 200740Z 15010KT 26/15 A3008 RMK A01 T02570149  RH  053%=      5-min Rain = 0
KREE 200745Z 15010KT 26/15 A3008 RMK A01 T02560149  RH  053%=      5-min Rain = 0
KREE 200750Z 15009KT 26/15 A3008 RMK A01 T02570150  RH  052%=      5-min Rain = 0
KREE 200755Z 15010KT 26/15 A3008 RMK A01 T02580150  RH  052%=      5-min Rain = 0
KREE 200800Z 15010KT 26/15 A3008 RMK A01 T02590150  RH  052%=      5-min Rain = 0
KREE 200805Z 15010KT 26/15 A3008 RMK A01 T02590150  RH  052%=      5-min Rain = 0
KREE 200810Z 15011KT 26/15 A3008 RMK A01 T02590150  RH  052%=      5-min Rain = 0
KREE 200815Z 15011KT 26/15 A3008 RMK A01 T02580150  RH  053%=      5-min Rain = 0
KREE 200820Z 15011KT 26/15 A3008 RMK A01 T02570150  RH  053%=      5-min Rain = 0
KREE 200825Z 16011KT 26/15 A3008 RMK A01 T02560150  RH  053%=      5-min Rain = 0
KREE 200830Z 16011KT 26/15 A3008 RMK A01 T02550150  RH  053%=      5-min Rain = 0
KREE 200835Z 16011KT 26/15 A3008 RMK A01 T02550150  RH  053%=      5-min Rain = 0
KREE 200840Z 16012KT 26/15 A3008 RMK A01 T02550150  RH  053%=      5-min Rain = 0
KREE 200845Z 16012KT 26/15 A3008 RMK A01 T02550150  RH  053%=      5-min Rain = 0
KREE 200850Z 16012KT 26/15 A3008 RMK A01 T02560150  RH  053%=      5-min Rain = 0
KREE 200855Z 16012KT 26/15 A3008 RMK A01 T02550150  RH  053%=      5-min Rain = 0
KREE 200900Z 17012KT 26/15 A3008 RMK A01 T02550149  RH  053%=      5-min Rain = 0
KREE 200905Z 17011G16KT 26/15 A3009 RMK A01 T02550149  RH  053%=      5-min Rain = 0
KREE 200910Z 17012KT 25/15 A3009 RMK A01 T02540148  RH  053%=      5-min Rain = 0
KREE 200915Z 17012KT 26/15 A3009 RMK A01 T02550148  RH  053%=      5-min Rain = 0
KREE 200920Z 17012KT 25/15 A3009 RMK A01 T02540148  RH  053%=      5-min Rain = 0
KREE 200925Z 17011KT 25/15 A3009 RMK A01 T02530148  RH  053%=      5-min Rain = 0
KREE 200930Z 17011KT 25/15 A3009 RMK A01 T02530148  RH  053%=      5-min Rain = 0
KREE 200935Z 17011KT 25/15 A3009 RMK A01 T02520147  RH  053%=      5-min Rain = 0
KREE 200940Z 17011KT 25/15 A3009 RMK A01 T02520147  RH  053%=      5-min Rain = 0
KREE 200945Z 18012KT 25/15 A3009 RMK A01 T02530146  RH  053%=      5-min Rain = 0
KREE 200950Z 17012KT 25/15 A3008 RMK A01 T02530145  RH  052%=      5-min Rain = 0
KREE 200955Z 17012KT 25/14 A3009 RMK A01 T02530144  RH  052%=      5-min Rain = 0
KREE 201000Z 18011KT 25/14 A3009 RMK A01 T02520144  RH  052%=      5-min Rain = 0
KREE 201005Z 18011KT 25/14 A3009 RMK A01 T02520144  RH  052%=      5-min Rain = 0
KREE 201010Z 18010KT 25/14 A3009 RMK A01 T02520143  RH  052%=      5-min Rain = 0
KREE 201015Z 19010KT 25/14 A3009 RMK A01 T02500143  RH  052%=      5-min Rain = 0
KREE 201020Z 20009KT 25/14 A3009 RMK A01 T02480143  RH  053%=      5-min Rain = 0
KREE 201025Z 21007KT 24/14 A3009 RMK A01 T02440143  RH  055%=      5-min Rain = 0
KREE 201030Z 22007KT 24/14 A3009 RMK A01 T02410143  RH  056%=      5-min Rain = 0
KREE 201035Z 22007KT 24/14 A301 RMK A01 T02380143  RH  056%=      5-min Rain = 0
KREE 201040Z 23006KT 24/14 A301 RMK A01 T02350142  RH  057%=      5-min Rain = 0
KREE 201045Z 22007KT 23/14 A301 RMK A01 T02320142  RH  058%=      5-min Rain = 0
KREE 201050Z 23006KT 23/14 A301 RMK A01 T02300143  RH  059%=      5-min Rain = 0
KREE 201055Z 22006KT 23/14 A301 RMK A01 T02280143  RH  060%=      5-min Rain = 0
KREE 201100Z 22006KT 23/14 A301 RMK A01 T02260143  RH  061%=      5-min Rain = 0
KREE 201105Z 22006KT 22/14 A301 RMK A01 T02240143  RH  061%=      5-min Rain = 0
KREE 201110Z 22006KT 22/14 A3011 RMK A01 T02230143  RH  062%=      5-min Rain = 0
KREE 201115Z 23005KT 22/14 A3011 RMK A01 T02220143  RH  062%=      5-min Rain = 0
KREE 201120Z 23005KT 22/14 A3011 RMK A01 T02210142  RH  062%=      5-min Rain = 0
KREE 201125Z 23004KT 22/14 A3011 RMK A01 T02200142  RH  062%=      5-min Rain = 0
KREE 201130Z 23004KT 22/14 A3011 RMK A01 T02200142  RH  063%=      5-min Rain = 0
KREE 201135Z 24004KT 22/14 A3011 RMK A01 T02180142  RH  063%=      5-min Rain = 0
KREE 201140Z 23003KT 22/14 A3011 RMK A01 T02180142  RH  063%=      5-min Rain = 0
KREE 201145Z 22004KT 22/14 A3011 RMK A01 T02200142  RH  062%=      5-min Rain = 0
KREE 201150Z 22004KT 22/14 A3011 RMK A01 T02210142  RH  062%=      5-min Rain = 0
KREE 201155Z 23003KT 22/14 A3011 RMK A01 T02190141  RH  063%=      5-min Rain = 0
KREE 201200Z 22003KT 22/14 A3011 RMK A01 T02180141  RH  063%=      5-min Rain = 0
KREE 201205Z 22003KT 22/14 A3011 RMK A01 T02190141  RH  063%=      5-min Rain = 0
KREE 201210Z 21004KT 22/14 A3011 RMK A01 T02190141  RH  062%=      5-min Rain = 0
KREE 201215Z 21004KT 22/14 A3012 RMK A01 T02190141  RH  062%=      5-min Rain = 0
KREE 201220Z 21004KT 22/14 A3012 RMK A01 T02170140  RH  063%=      5-min Rain = 0
KREE 201225Z 21003KT 22/14 A3012 RMK A01 T02170140  RH  063%=      5-min Rain = 0
KREE 201230Z 22002KT 22/14 A3012 RMK A01 T02170141  RH  063%=      5-min Rain = 0
KREE 201235Z 23002KT 22/14 A3013 RMK A01 T02180141  RH  063%=      5-min Rain = 0
KREE 201240Z 24002KT 22/14 A3013 RMK A01 T02190141  RH  063%=      5-min Rain = 0
KREE 201245Z 25002KT 22/14 A3013 RMK A01 T02200141  RH  062%=      5-min Rain = 0
KREE 201250Z 21002KT 22/14 A3013 RMK A01 T02210141  RH  062%=      5-min Rain = 0
KREE 201255Z 14002KT 22/14 A3014 RMK A01 T02210141  RH  062%=      5-min Rain = 0
KREE 201300Z 14002KT 23/14 A3014 RMK A01 T02260144  RH  061%=      5-min Rain = 0
KREE 201305Z 16002KT 23/14 A3014 RMK A01 T02330144  RH  059%=      5-min Rain = 0
KREE 201310Z 18002KT 24/15 A3014 RMK A01 T02390145  RH  057%=      5-min Rain = 0
KREE 201315Z 20002KT 24/15 A3014 RMK A01 T02400145  RH  056%=      5-min Rain = 0
KREE 201320Z 20003KT 24/14 A3014 RMK A01 T02410144  RH  056%=      5-min Rain = 0
KREE 201325Z 20004KT 24/15 A3014 RMK A01 T02420145  RH  056%=      5-min Rain = 0
KREE 201330Z 20006KT 25/15 A3014 RMK A01 T02450145  RH  055%=      5-min Rain = 0
KREE 201335Z 21006KT 25/15 A3014 RMK A01 T02480147  RH  054%=      5-min Rain = 0
KREE 201340Z 21008KT 25/15 A3014 RMK A01 T02510148  RH  054%=      5-min Rain = 0
KREE 201345Z 21009KT 25/15 A3014 RMK A01 T02540149  RH  053%=      5-min Rain = 0
KREE 201350Z 21010KT 26/15 A3014 RMK A01 T02560150  RH  053%=      5-min Rain = 0
KREE 201355Z 21010KT 26/15 A3014 RMK A01 T02570152  RH  053%=      5-min Rain = 0
KREE 201400Z 20010KT 26/15 A3014 RMK A01 T02610153  RH  053%=      5-min Rain = 0
KREE 201405Z 21010G15KT 26/15 A3014 RMK A01 T02620154  RH  053%=      5-min Rain = 0
KREE 201410Z 21010KT 26/16 A3014 RMK A01 T02640155  RH  052%=      5-min Rain = 0
KREE 201415Z 21011KT 27/16 A3014 RMK A01 T02660156  RH  052%=      5-min Rain = 0
KREE 201420Z 21011KT 27/16 A3014 RMK A01 T02690158  RH  052%=      5-min Rain = 0
KREE 201425Z 21011KT 27/16 A3014 RMK A01 T02730160  RH  051%=      5-min Rain = 0
KREE 201430Z 22012G17KT 28/16 A3014 RMK A01 T02760162  RH  051%=      5-min Rain = 0
KREE 201435Z 22012G17KT 28/16 A3014 RMK A01 T02770163  RH  051%=      5-min Rain = 0
KREE 201440Z 21013KT 28/16 A3014 RMK A01 T02780164  RH  051%=      5-min Rain = 0
KREE 201445Z 21014KT 28/17 A3014 RMK A01 T02800165  RH  051%=      5-min Rain = 0
KREE 201450Z 21014KT 28/17 A3014 RMK A01 T02810165  RH  051%=      5-min Rain = 0
KREE 201455Z 22013KT 28/17 A3014 RMK A01 T02840166  RH  050%=      5-min Rain = 0
KREE 201500Z 22013KT 28/17 A3014 RMK A01 T02840166  RH  050%=      5-min Rain = 0
KREE 201505Z 23013KT 29/17 A3014 RMK A01 T02870166  RH  049%=      5-min Rain = 0
KREE 201510Z 22012KT 29/17 A3014 RMK A01 T02900168  RH  049%=      5-min Rain = 0
KREE 201515Z 21012KT 29/17 A3014 RMK A01 T02910168  RH  049%=      5-min Rain = 0
KREE 201520Z 22013KT 29/17 A3014 RMK A01 T02910168  RH  049%=      5-min Rain = 0
KREE 201525Z 22013KT 29/17 A3014 RMK A01 T02940169  RH  048%=      5-min Rain = 0
KREE 201530Z 22013KT 29/17 A3014 RMK A01 T02940169  RH  048%=      5-min Rain = 0
KREE 201535Z 20013G19KT 30/17 A3014 RMK A01 T02970168  RH  047%=      5-min Rain = 0
KREE 201540Z 21012KT 30/17 A3015 RMK A01 T02950169  RH  048%=      5-min Rain = 0
KREE 201545Z 21012KT 30/17 A3015 RMK A01 T02980170  RH  047%=      5-min Rain = 0
KREE 201550Z 21011G16KT 30/17 A3014 RMK A01 T03000170  RH  047%=      5-min Rain = 0
KREE 201555Z 22011G16KT 30/17 A3014 RMK A01 T03000169  RH  046%=      5-min Rain = 0
KREE 201600Z 21013KT 30/17 A3014 RMK A01 T03040168  RH  045%=      5-min Rain = 0
KREE 201605Z 21013KT 30/17 A3014 RMK A01 T03040166  RH  045%=      5-min Rain = 0
KREE 201610Z 21012KT 30/17 A3014 RMK A01 T03040167  RH  045%=      5-min Rain = 0
KREE 201615Z 20012KT 31/17 A3014 RMK A01 T03070166  RH  044%=      5-min Rain = 0
KREE 201620Z 22010G16KT 31/17 A3014 RMK A01 T03070168  RH  044%=      5-min Rain = 0
KREE 201625Z 23011KT 31/17 A3014 RMK A01 T03090168  RH  044%=      5-min Rain = 0
KREE 201630Z 22011G16KT 31/17 A3014 RMK A01 T03120167  RH  043%=      5-min Rain = 0
KREE 201635Z 22010KT 31/17 A3014 RMK A01 T03140165  RH  042%=      5-min Rain = 0
KREE 201640Z 23010KT 32/17 A3014 RMK A01 T03170165  RH  041%=      5-min Rain = 0
KREE 201645Z 24011KT 32/16 A3014 RMK A01 T03190163  RH  040%=      5-min Rain = 0
KREE 201650Z 24011KT 32/16 A3014 RMK A01 T03160164  RH  041%=      5-min Rain = 0
KREE 201655Z 23010KT 32/16 A3014 RMK A01 T03170164  RH  041%=      5-min Rain = 0
KREE 201700Z 21008G15KT 32/16 A3014 RMK A01 T03190164  RH  040%=      5-min Rain = 0
KREE 201705Z 23009G14KT 32/16 A3014 RMK A01 T03190163  RH  040%=      5-min Rain = 0
KREE 201710Z 22010G15KT 32/16 A3014 RMK A01 T03200164  RH  040%=      5-min Rain = 0
KREE 201715Z 21010G15KT 32/16 A3014 RMK A01 T03220163  RH  039%=      5-min Rain = 0
KREE 201720Z 22008KT 32/16 A3014 RMK A01 T03240163  RH  039%=      5-min Rain = 0
KREE 201725Z 23009KT 33/16 A3014 RMK A01 T03290161  RH  037%=      5-min Rain = 0
KREE 201730Z 20006G14KT 33/16 A3014 RMK A01 T03280156  RH  036%=      5-min Rain = 0
KREE 201735Z 21007G13KT 33/16 A3014 RMK A01 T03290159  RH  037%=      5-min Rain = 0
KREE 201740Z 23006G12KT 33/16 A3014 RMK A01 T03280159  RH  037%=      5-min Rain = 0
KREE 201745Z 19009G14KT 33/16 A3014 RMK A01 T03310156  RH  036%=      5-min Rain = 0
KREE 201750Z 19008G13KT 33/15 A3014 RMK A01 T03340151  RH  034%=      5-min Rain = 0
KREE 201755Z 19007KT 33/15 A3014 RMK A01 T03310153  RH  035%=      5-min Rain = 0
KREE 201800Z 21008G13KT 34/15 A3014 RMK A01 T03380153  RH  034%=      5-min Rain = 0
KREE 201805Z 21006G11KT 34/16 A3014 RMK A01 T03350157  RH  035%=      5-min Rain = 0
KREE 201810Z 15008G13KT 34/15 A3013 RMK A01 T03400153  RH  033%=      5-min Rain = 0
KREE 201815Z 17009KT 34/15 A3013 RMK A01 T03400149  RH  032%=      5-min Rain = 0
KREE 201820Z 17008G13KT 34/15 A3013 RMK A01 T03400148  RH  032%=      5-min Rain = 0
KREE 201825Z 16006G12KT 34/15 A3013 RMK A01 T03440154  RH  033%=      5-min Rain = 0
KREE 201830Z 13007G12KT 34/16 A3013 RMK A01 T03430155  RH  033%=      5-min Rain = 0
KREE 201835Z 13006KT 34/16 A3013 RMK A01 T03440157  RH  034%=      5-min Rain = 0
KREE 201840Z 14008G13KT 35/16 A3013 RMK A01 T03470158  RH  033%=      5-min Rain = 0
KREE 201845Z 18010KT 35/16 A3012 RMK A01 T03490155  RH  032%=      5-min Rain = 0
KREE 201850Z 19007G13KT 35/15 A3012 RMK A01 T03470148  RH  031%=      5-min Rain = 0
KREE 201855Z 17010G18KT 35/15 A3012 RMK A01 T03490145  RH  030%=      5-min Rain = 0
KREE 201900Z 17009G15KT 35/15 A3012 RMK A01 T03470145  RH  031%=      5-min Rain = 0
KREE 201905Z 17008KT 35/15 A3012 RMK A01 T03510148  RH  030%=      5-min Rain = 0
KREE 201910Z 17008KT 35/14 A3012 RMK A01 T03510142  RH  029%=      5-min Rain = 0
KREE 201915Z 16009G15KT 35/14 A3012 RMK A01 T03510144  RH  030%=      5-min Rain = 0
KREE 201920Z 13009G14KT 35/14 A3012 RMK A01 T03470144  RH  030%=      5-min Rain = 0
KREE 201925Z 14008G13KT 35/14 A3012 RMK A01 T03470144  RH  030%=      5-min Rain = 0
KREE 201930Z 15011KT 35/14 A3012 RMK A01 T03530144  RH  029%=      5-min Rain = 0
KREE 201935Z 14007G12KT 35/15 A3012 RMK A01 T03500146  RH  030%=      5-min Rain = 0
KREE 201940Z 16009G14KT 35/14 A3011 RMK A01 T03520142  RH  029%=      5-min Rain = 0
KREE 201945Z 15011KT 36/14 A3011 RMK A01 T03580137  RH  027%=      5-min Rain = 0
KREE 201950Z 14010G16KT 35/13 A3011 RMK A01 T03540130  RH  027%=      5-min Rain = 0
KREE 201955Z 12007KT 35/13 A3011 RMK A01 T03530130  RH  027%=      5-min Rain = 0
KREE 202000Z 11008KT 35/13 A3011 RMK A01 T03530133  RH  027%=      5-min Rain = 0
KREE 202005Z 15007KT 36/14 A3011 RMK A01 T03580138  RH  027%=      5-min Rain = 0
KREE 202010Z 12008G22KT 35/14 A301 RMK A01 T03540137  RH  028%=      5-min Rain = 0
KREE 202015Z 15011G17KT 36/13 A301 RMK A01 T03570133  RH  027%=      5-min Rain = 0
KREE 202020Z 16011KT 36/13 A301 RMK A01 T03600128  RH  025%=      5-min Rain = 0
KREE 202025Z 14010G15KT 36/14 A301 RMK A01 T03620135  RH  026%=      5-min Rain = 0
KREE 202030Z 12007KT 36/14 A301 RMK A01 T03580140  RH  028%=      5-min Rain = 0
KREE 202035Z 15009G16KT 36/14 A3009 RMK A01 T03560144  RH  029%=      5-min Rain = 0
KREE 202040Z 17009G14KT 36/14 A3009 RMK A01 T03590143  RH  028%=      5-min Rain = 0
KREE 202045Z 12009KT 36/15 A3009 RMK A01 T03580149  RH  029%=      5-min Rain = 0
KREE 202050Z 13007G16KT 36/15 A3009 RMK A01 T03560148  RH  030%=      5-min Rain = 0
KREE 202055Z 14012G18KT 36/15 A3008 RMK A01 T03640147  RH  028%=      5-min Rain = 0
KREE 202100Z 14008G15KT 35/15 A3008 RMK A01 T03530146  RH  030%=      5-min Rain = 0
KREE 202105Z 17010KT 36/14 A3008 RMK A01 T03570142  RH  028%=      5-min Rain = 0
KREE 202110Z 13011G16KT 36/14 A3008 RMK A01 T03610142  RH  028%=      5-min Rain = 0
KREE 202115Z 15008G15KT 36/14 A3008 RMK A01 T03620143  RH  028%=      5-min Rain = 0
KREE 202120Z 13012KT 36/14 A3007 RMK A01 T03620143  RH  028%=      5-min Rain = 0
KREE 202125Z 14011G17KT 36/14 A3007 RMK A01 T03620139  RH  027%=      5-min Rain = 0
KREE 202130Z 15011KT 37/14 A3007 RMK A01 T03660141  RH  027%=      5-min Rain = 0
KREE 202135Z 15013G21KT 37/14 A3007 RMK A01 T03670139  RH  026%=      5-min Rain = 0
KREE 202140Z 13008G15KT 36/13 A3007 RMK A01 T03550134  RH  027%=      5-min Rain = 0
KREE 202145Z 13009G14KT 36/13 A3007 RMK A01 T03570133  RH  027%=      5-min Rain = 0
KREE 202150Z 15006G12KT 36/14 A3006 RMK A01 T03590135  RH  027%=      5-min Rain = 0
KREE 202155Z 14009G14KT 36/14 A3006 RMK A01 T03580137  RH  027%=      5-min Rain = 0
KREE 202200Z 15009KT 35/14 A3006 RMK A01 T03490137  RH  029%=      5-min Rain = 0
KREE 202205Z 14009KT 35/14 A3006 RMK A01 T03490138  RH  029%=      5-min Rain = 0
KREE 202210Z 15011G16KT 35/14 A3006 RMK A01 T03510137  RH  028%=      5-min Rain = 0
KREE 202215Z 14009KT 36/14 A3006 RMK A01 T03550137  RH  028%=      5-min Rain = 0
KREE 202220Z 15013G18KT 36/13 A3005 RMK A01 T03600133  RH  026%=      5-min Rain = 0
KREE 202225Z 16011KT 36/13 A3005 RMK A01 T03570130  RH  026%=      5-min Rain = 0
KREE 202230Z 17008G13KT 35/13 A3005 RMK A01 T03530128  RH  026%=      5-min Rain = 0
KREE 202235Z 15010G16KT 36/13 A3005 RMK A01 T03590131  RH  026%=      5-min Rain = 0
KREE 202240Z 18009KT 36/13 A3005 RMK A01 T03580131  RH  026%=      5-min Rain = 0
KREE 202245Z 15011KT 36/12 A3005 RMK A01 T03590123  RH  025%=      5-min Rain = 0
KREE 202250Z 18009KT 36/12 A3005 RMK A01 T03620123  RH  024%=      5-min Rain = 0
KREE 202255Z 17010G16KT 36/12 A3005 RMK A01 T03600121  RH  024%=      5-min Rain = 0
KREE 202300Z 13010KT 36/11 A3005 RMK A01 T03570114  RH  023%=      5-min Rain = 0
KREE 202305Z 14011KT 36/11 A3005 RMK A01 T03580109  RH  023%=      5-min Rain = 0
KREE 202310Z 15009KT 36/11 A3005 RMK A01 T03580106  RH  022%=      5-min Rain = 0
KREE 202315Z 15008KT 36/12 A3005 RMK A01 T03550115  RH  024%=      5-min Rain = 0
KREE 202320Z 16009KT 36/12 A3005 RMK A01 T03550116  RH  024%=      5-min Rain = 0
KREE 202325Z 17011KT 35/11 A3005 RMK A01 T03510114  RH  024%=      5-min Rain = 0
KREE 202330Z 17009G16KT 35/11 A3005 RMK A01 T03490113  RH  024%=      5-min Rain = 0
KREE 202335Z 17012KT 35/12 A3005 RMK A01 T03480119  RH  026%=      5-min Rain = 0
KREE 202340Z 17008KT 35/12 A3005 RMK A01 T03480120  RH  026%=      5-min Rain = 0
KREE 202345Z 15009KT 35/12 A3005 RMK A01 T03490122  RH  026%=      5-min Rain = 0
KREE 202350Z 15011KT 35/12 A3005 RMK A01 T03490121  RH  026%=      5-min Rain = 0
KREE 202355Z 16012KT 35/12 A3005 RMK A01 T03470122  RH  026%=      5-min Rain = 0
KREE 210000Z 15012KT 35/12 A3005 RMK A01 T03450119  RH  026%=      5-min Rain = 0
KREE 210005Z 15008G13KT 34/12 A3005 RMK A01 T03440117  RH  026%=      5-min Rain = 0
KREE 210010Z 15008KT 34/12 A3005 RMK A01 T03430120  RH  026%=      5-min Rain = 0
KREE 210015Z 16009KT 34/12 A3005 RMK A01 T03410120  RH  027%=      5-min Rain = 0
KREE 210020Z 15009KT 34/12 A3005 RMK A01 T03400120  RH  027%=      5-min Rain = 0
KREE 210025Z 16009KT 34/12 A3005 RMK A01 T03390122  RH  027%=      5-min Rain = 0
KREE 210030Z 16010KT 34/12 A3005 RMK A01 T03380120  RH  027%=      5-min Rain = 0
KREE 210035Z 16009KT 34/12 A3005 RMK A01 T03380119  RH  027%=      5-min Rain = 0
KREE 210040Z 15008KT 34/12 A3005 RMK A01 T03360120  RH  027%=      5-min Rain = 0
KREE 210045Z 16009KT 34/12 A3005 RMK A01 T03350120  RH  028%=      5-min Rain = 0
KREE 210050Z 16009KT 33/12 A3006 RMK A01 T03340119  RH  028%=      5-min Rain = 0
KREE 210055Z 15008KT 33/12 A3006 RMK A01 T03330119  RH  028%=      5-min Rain = 0
KREE 210100Z 16008KT 33/12 A3006 RMK A01 T03320119  RH  028%=      5-min Rain = 0
KREE 210105Z 16009KT 33/12 A3006 RMK A01 T03320119  RH  028%=      5-min Rain = 0
KREE 210110Z 15009KT 33/12 A3006 RMK A01 T03300119  RH  028%=      5-min Rain = 0
KREE 210115Z 15009KT 33/12 A3006 RMK A01 T03280118  RH  028%=      5-min Rain = 0
KREE 210120Z 15009KT 33/12 A3006 RMK A01 T03260116  RH  028%=      5-min Rain = 0
KREE 210125Z 15009KT 32/12 A3006 RMK A01 T03240116  RH  028%=      5-min Rain = 0
KREE 210130Z 15009KT 32/12 A3006 RMK A01 T03230115  RH  029%=      5-min Rain = 0
KREE 210135Z 15008KT 32/12 A3006 RMK A01 T03200115  RH  029%=      5-min Rain = 0
KREE 210140Z 15008KT 32/12 A3006 RMK A01 T03180115  RH  029%=      5-min Rain = 0
KREE 210145Z 14008KT 32/11 A3007 RMK A01 T03160114  RH  030%=      5-min Rain = 0
KREE 210150Z 13008KT 31/12 A3007 RMK A01 T03140115  RH  030%=      5-min Rain = 0
KREE 210155Z 13008KT 31/12 A3007 RMK A01 T03120116  RH  030%=      5-min Rain = 0
KREE 210200Z 14008KT 31/12 A3007 RMK A01 T03120115  RH  030%=      5-min Rain = 0
KREE 210205Z 14008KT 31/12 A3007 RMK A01 T03110115  RH  031%=      5-min Rain = 0
KREE 210210Z 14008KT 31/12 A3007 RMK A01 T03090115  RH  031%=      5-min Rain = 0
KREE 210215Z 14008KT 31/12 A3007 RMK A01 T03070115  RH  031%=      5-min Rain = 0
KREE 210220Z 14009KT 31/12 A3008 RMK A01 T03060115  RH  031%=      5-min Rain = 0
KREE 210225Z 14008KT 31/12 A3008 RMK A01 T03050115  RH  032%=      5-min Rain = 0
KREE 210230Z 14008KT 30/12 A3008 RMK A01 T03020115  RH  032%=      5-min Rain = 0
KREE 210235Z 15008KT 30/12 A3008 RMK A01 T03000115  RH  032%=      5-min Rain = 0
KREE 210240Z 14007KT 30/12 A3008 RMK A01 T02990115  RH  033%=      5-min Rain = 0
KREE 210245Z 14007KT 30/12 A3009 RMK A01 T02970115  RH  033%=      5-min Rain = 0
KREE 210250Z 14008KT 30/12 A3009 RMK A01 T02960115  RH  033%=      5-min Rain = 0
KREE 210255Z 14008KT 29/12 A3009 RMK A01 T02940116  RH  034%=      5-min Rain = 0
KREE 210300Z 15007KT 29/12 A3009 RMK A01 T02920116  RH  034%=      5-min Rain = 0
KREE 210305Z 15007KT 29/12 A3009 RMK A01 T02900116  RH  035%=      5-min Rain = 0
KREE 210310Z 15008KT 29/12 A3009 RMK A01 T02870117  RH  035%=      5-min Rain = 0
KREE 210315Z 15008KT 29/12 A3009 RMK A01 T02890117  RH  035%=      5-min Rain = 0
KREE 210320Z 15009KT 29/12 A3009 RMK A01 T02910117  RH  035%=      5-min Rain = 0
KREE 210325Z 15009KT 29/12 A3009 RMK A01 T02910118  RH  035%=      5-min Rain = 0
KREE 210330Z 15009KT 29/12 A3009 RMK A01 T02890119  RH  036%=      5-min Rain = 0
KREE 210335Z 15010KT 29/12 A3009 RMK A01 T02890119  RH  036%=      5-min Rain = 0
KREE 210340Z 15009KT 29/12 A3009 RMK A01 T02910120  RH  036%=      5-min Rain = 0
KREE 210345Z 15009KT 29/12 A3009 RMK A01 T02890121  RH  036%=      5-min Rain = 0
KREE 210350Z 15009KT 29/12 A3009 RMK A01 T02890122  RH  036%=      5-min Rain = 0
KREE 210355Z 15010KT 29/12 A301 RMK A01 T02880123  RH  037%=      5-min Rain = 0
KREE 210400Z 15009KT 29/13 A301 RMK A01 T02860125  RH  038%=      5-min Rain = 0
KREE 210405Z 15010KT 29/13 A301 RMK A01 T02870126  RH  038%=      5-min Rain = 0
KREE 210410Z 15011KT 29/13 A301 RMK A01 T02890128  RH  038%=      5-min Rain = 0
KREE 210415Z 15011KT 29/13 A301 RMK A01 T02880129  RH  038%=      5-min Rain = 0
KREE 210420Z 15011KT 29/13 A301 RMK A01 T02880129  RH  038%=      5-min Rain = 0
KREE 210425Z 15011KT 29/13 A301 RMK A01 T02880130  RH  039%=      5-min Rain = 0
KREE 210430Z 15011KT 29/13 A301 RMK A01 T02870131  RH  039%=      5-min Rain = 0
KREE 210435Z 15011KT 29/13 A301 RMK A01 T02850131  RH  039%=      5-min Rain = 0
KREE 210440Z 15010KT 28/13 A301 RMK A01 T02830131  RH  040%=      5-min Rain = 0
KREE 210445Z 15010KT 28/13 A301 RMK A01 T02830131  RH  040%=      5-min Rain = 0
KREE 210450Z 15010KT 28/13 A301 RMK A01 T02830132  RH  040%=      5-min Rain = 0
KREE 210455Z 15011KT 28/13 A301 RMK A01 T02820132  RH  040%=      5-min Rain = 0

Page generated in 0.0094 seconds.